Terminal Aerodrome Forecast
Issued by NWS

Home | Current Version | Previous Version | Text Only | Print | Product List | Glossary On
Versions: 1 2 3 4 5 6 7 8 9 10 11 12 13 14 15 16 17 18 19 20 21 22 23 24 25 26 27 28 29
000
FTAK31 PANC 060800 AAA
TAFAEN
TAF AMD
PAEN 060800Z 0608/0706 02007KT 1SM BR SCT001 SCT120
      TEMPO 0608/0612 1/2SM FG BKN001
     FM061500 02010KT P6SM FEW030 BKN060=

USA.gov is the U.S. government's official web portal to all federal, state and local government web resources and services.